sensor_id;sensor_type;location;lat;lon;timestamp;P1;durP1;ratioP1;P2;durP2;ratioP2
64716;SDS011;51146;50.274;19.000;2022-08-04T00:00:14;27.30;;;20.30;;
64716;SDS011;51146;50.274;19.000;2022-08-04T00:11:00;25.15;;;22.50;;
64716;SDS011;51146;50.274;19.000;2022-08-04T00:13:30;28.08;;;21.40;;
64716;SDS011;51146;50.274;19.000;2022-08-04T00:16:03;27.33;;;20.73;;
64716;SDS011;51146;50.274;19.000;2022-08-04T00:18:39;24.98;;;21.23;;
64716;SDS011;51146;50.274;19.000;2022-08-04T00:21:21;26.60;;;22.33;;
64716;SDS011;51146;50.274;19.000;2022-08-04T00:23:51;24.73;;;22.17;;
64716;SDS011;51146;50.274;19.000;2022-08-04T00:26:38;25.02;;;22.33;;
64716;SDS011;51146;50.274;19.000;2022-08-04T00:29:06;24.48;;;21.42;;
64716;SDS011;51146;50.274;19.000;2022-08-04T00:31:33;23.75;;;20.45;;
64716;SDS011;51146;50.274;19.000;2022-08-04T00:34:22;26.48;;;22.80;;
64716;SDS011;51146;50.274;19.000;2022-08-04T00:36:52;26.58;;;22.58;;
64716;SDS011;51146;50.274;19.000;2022-08-04T00:39:19;24.50;;;21.90;;
64716;SDS011;51146;50.274;19.000;2022-08-04T00:42:02;27.35;;;21.67;;
64716;SDS011;51146;50.274;19.000;2022-08-04T00:44:52;27.08;;;22.48;;
64716;SDS011;51146;50.274;19.000;2022-08-04T00:53:06;25.48;;;22.23;;
64716;SDS011;51146;50.274;19.000;2022-08-04T00:58:28;25.88;;;21.67;;
64716;SDS011;51146;50.274;19.000;2022-08-04T01:01:11;30.10;;;22.98;;
64716;SDS011;51146;50.274;19.000;2022-08-04T01:15:59;26.17;;;22.08;;
64716;SDS011;51146;50.274;19.000;2022-08-04T01:30:00;26.27;;;23.20;;
64716;SDS011;51146;50.274;19.000;2022-08-04T01:32:36;25.27;;;22.63;;
64716;SDS011;51146;50.274;19.000;2022-08-04T01:35:14;28.30;;;23.30;;
64716;SDS011;51146;50.274;19.000;2022-08-04T01:38:06;25.73;;;21.30;;
64716;SDS011;51146;50.274;19.000;2022-08-04T01:40:47;23.40;;;20.80;;
64716;SDS011;51146;50.274;19.000;2022-08-04T01:43:19;26.75;;;23.85;;
64716;SDS011;51146;50.274;19.000;2022-08-04T01:45:50;26.98;;;22.23;;
64716;SDS011;51146;50.274;19.000;2022-08-04T01:48:23;25.67;;;22.92;;
64716;SDS011;51146;50.274;19.000;2022-08-04T01:51:15;27.50;;;23.42;;
64716;SDS011;51146;50.274;19.000;2022-08-04T01:53:39;24.52;;;21.98;;
64716;SDS011;51146;50.274;19.000;2022-08-04T01:56:08;26.90;;;22.65;;
64716;SDS011;51146;50.274;19.000;2022-08-04T01:58:37;24.67;;;21.77;;
64716;SDS011;51146;50.274;19.000;2022-08-04T02:01:08;25.80;;;22.67;;
64716;SDS011;51146;50.274;19.000;2022-08-04T02:03:37;25.30;;;22.52;;
64716;SDS011;51146;50.274;19.000;2022-08-04T02:06:31;24.90;;;21.45;;
64716;SDS011;51146;50.274;19.000;2022-08-04T02:12:03;26.15;;;22.67;;
64716;SDS011;51146;50.274;19.000;2022-08-04T02:14:47;26.25;;;21.88;;
64716;SDS011;51146;50.274;19.000;2022-08-04T02:17:22;23.73;;;20.85;;
64716;SDS011;51146;50.274;19.000;2022-08-04T02:22:39;25.92;;;21.65;;
64716;SDS011;51146;50.274;19.000;2022-08-04T02:25:13;26.73;;;22.65;;
64716;SDS011;51146;50.274;19.000;2022-08-04T02:30:30;32.50;;;21.88;;
64716;SDS011;51146;50.274;19.000;2022-08-04T02:33:06;23.08;;;20.58;;
64716;SDS011;51146;50.274;19.000;2022-08-04T02:35:37;31.63;;;24.42;;
64716;SDS011;51146;50.274;19.000;2022-08-04T02:41:01;27.05;;;23.42;;
64716;SDS011;51146;50.274;19.000;2022-08-04T02:43:29;24.33;;;21.33;;
64716;SDS011;51146;50.274;19.000;2022-08-04T02:46:18;26.42;;;23.02;;
64716;SDS011;51146;50.274;19.000;2022-08-04T02:48:47;26.42;;;23.27;;
64716;SDS011;51146;50.274;19.000;2022-08-04T02:51:16;25.48;;;22.75;;
64716;SDS011;51146;50.274;19.000;2022-08-04T02:53:48;27.70;;;23.38;;
64716;SDS011;51146;50.274;19.000;2022-08-04T02:56:18;28.80;;;23.25;;
64716;SDS011;51146;50.274;19.000;2022-08-04T02:58:48;28.23;;;24.75;;
64716;SDS011;51146;50.274;19.000;2022-08-04T03:01:20;31.58;;;24.15;;
64716;SDS011;51146;50.274;19.000;2022-08-04T03:17:43;28.25;;;23.42;;
64716;SDS011;51146;50.274;19.000;2022-08-04T03:21:24;29.88;;;23.60;;
64716;SDS011;51146;50.274;19.000;2022-08-04T03:52:12;33.92;;;28.80;;
64716;SDS011;51146;50.274;19.000;2022-08-04T03:55:27;31.08;;;26.88;;
64716;SDS011;51146;50.274;19.000;2022-08-04T04:04:37;41.80;;;29.95;;
64716;SDS011;51146;50.274;19.000;2022-08-04T04:10:42;31.48;;;25.60;;
64716;SDS011;51146;50.274;19.000;2022-08-04T04:24:46;36.33;;;25.95;;
64716;SDS011;51146;50.274;19.000;2022-08-04T04:27:17;36.95;;;26.23;;
64716;SDS011;51146;50.274;19.000;2022-08-04T04:32:37;44.25;;;26.75;;
64716;SDS011;51146;50.274;19.000;2022-08-04T04:38:06;33.33;;;24.52;;
64716;SDS011;51146;50.274;19.000;2022-08-04T04:40:40;41.28;;;25.63;;
64716;SDS011;51146;50.274;19.000;2022-08-04T04:49:10;27.95;;;20.05;;
64716;SDS011;51146;50.274;19.000;2022-08-04T04:57:23;22.83;;;18.80;;
64716;SDS011;51146;50.274;19.000;2022-08-04T05:00:15;23.45;;;19.83;;
64716;SDS011;51146;50.274;19.000;2022-08-04T05:13:56;26.48;;;21.02;;
64716;SDS011;51146;50.274;19.000;2022-08-04T05:16:49;25.73;;;19.35;;
64716;SDS011;51146;50.274;19.000;2022-08-04T05:19:27;27.50;;;20.38;;
64716;SDS011;51146;50.274;19.000;2022-08-04T05:22:20;23.42;;;19.08;;
64716;SDS011;51146;50.274;19.000;2022-08-04T05:24:54;23.98;;;19.08;;
64716;SDS011;51146;50.274;19.000;2022-08-04T05:27:35;26.17;;;18.55;;
64716;SDS011;51146;50.274;19.000;2022-08-04T05:30:06;21.75;;;19.38;;
64716;SDS011;51146;50.274;19.000;2022-08-04T05:32:39;26.45;;;20.30;;
64716;SDS011;51146;50.274;19.000;2022-08-04T05:35:15;28.45;;;19.60;;
64716;SDS011;51146;50.274;19.000;2022-08-04T05:38:25;23.65;;;17.75;;
64716;SDS011;51146;50.274;19.000;2022-08-04T05:40:54;22.55;;;18.80;;
64716;SDS011;51146;50.274;19.000;2022-08-04T05:43:23;23.50;;;18.27;;
64716;SDS011;51146;50.274;19.000;2022-08-04T05:45:51;22.88;;;18.80;;
64716;SDS011;51146;50.274;19.000;2022-08-04T05:48:18;24.58;;;18.35;;
64716;SDS011;51146;50.274;19.000;2022-08-04T05:50:45;25.25;;;18.33;;
64716;SDS011;51146;50.274;19.000;2022-08-04T05:53:13;22.13;;;18.58;;
64716;SDS011;51146;50.274;19.000;2022-08-04T05:55:42;21.85;;;16.27;;
64716;SDS011;51146;50.274;19.000;2022-08-04T05:58:25;19.75;;;17.30;;
64716;SDS011;51146;50.274;19.000;2022-08-04T06:00:55;22.73;;;16.10;;
64716;SDS011;51146;50.274;19.000;2022-08-04T06:03:26;20.80;;;15.25;;
64716;SDS011;51146;50.274;19.000;2022-08-04T06:05:58;18.25;;;16.30;;
64716;SDS011;51146;50.274;19.000;2022-08-04T06:08:26;18.20;;;15.63;;
64716;SDS011;51146;50.274;19.000;2022-08-04T06:10:54;21.20;;;14.38;;
64716;SDS011;51146;50.274;19.000;2022-08-04T06:13:25;16.80;;;14.27;;
64716;SDS011;51146;50.274;19.000;2022-08-04T06:16:15;15.38;;;13.68;;
64716;SDS011;51146;50.274;19.000;2022-08-04T06:18:57;18.20;;;13.50;;
64716;SDS011;51146;50.274;19.000;2022-08-04T06:21:50;17.98;;;13.45;;
64716;SDS011;51146;50.274;19.000;2022-08-04T06:24:23;16.92;;;13.98;;
64716;SDS011;51146;50.274;19.000;2022-08-04T06:26:52;15.52;;;13.50;;
64716;SDS011;51146;50.274;19.000;2022-08-04T06:29:20;16.50;;;13.77;;
64716;SDS011;51146;50.274;19.000;2022-08-04T06:31:52;16.10;;;12.60;;
64716;SDS011;51146;50.274;19.000;2022-08-04T06:34:43;17.25;;;13.32;;
64716;SDS011;51146;50.274;19.000;2022-08-04T06:37:10;17.52;;;13.05;;
64716;SDS011;51146;50.274;19.000;2022-08-04T06:39:58;14.05;;;12.55;;
64716;SDS011;51146;50.274;19.000;2022-08-04T06:42:48;15.55;;;11.55;;
64716;SDS011;51146;50.274;19.000;2022-08-04T06:45:15;15.20;;;11.68;;
64716;SDS011;51146;50.274;19.000;2022-08-04T06:47:45;15.43;;;11.95;;
64716;SDS011;51146;50.274;19.000;2022-08-04T06:50:13;16.40;;;12.07;;
64716;SDS011;51146;50.274;19.000;2022-08-04T06:53:02;17.87;;;12.37;;
64716;SDS011;51146;50.274;19.000;2022-08-04T06:55:29;13.73;;;12.13;;
64716;SDS011;51146;50.274;19.000;2022-08-04T06:57:58;12.95;;;11.43;;
64716;SDS011;51146;50.274;19.000;2022-08-04T07:00:29;16.83;;;12.63;;
64716;SDS011;51146;50.274;19.000;2022-08-04T07:02:57;13.93;;;11.70;;
64716;SDS011;51146;50.274;19.000;2022-08-04T07:05:24;14.90;;;11.48;;
64716;SDS011;51146;50.274;19.000;2022-08-04T07:07:52;15.30;;;11.27;;
64716;SDS011;51146;50.274;19.000;2022-08-04T07:10:23;13.20;;;11.75;;
64716;SDS011;51146;50.274;19.000;2022-08-04T07:12:57;13.38;;;10.75;;
64716;SDS011;51146;50.274;19.000;2022-08-04T07:15:25;14.10;;;10.32;;
64716;SDS011;51146;50.274;19.000;2022-08-04T07:17:53;12.13;;;10.88;;
64716;SDS011;51146;50.274;19.000;2022-08-04T07:20:25;12.70;;;11.07;;
64716;SDS011;51146;50.274;19.000;2022-08-04T07:23:04;13.85;;;10.40;;
64716;SDS011;51146;50.274;19.000;2022-08-04T07:25:32;11.45;;;10.20;;
64716;SDS011;51146;50.274;19.000;2022-08-04T07:28:21;11.33;;;9.90;;
64716;SDS011;51146;50.274;19.000;2022-08-04T07:30:49;11.35;;;9.57;;
64716;SDS011;51146;50.274;19.000;2022-08-04T07:33:18;13.63;;;9.98;;
64716;SDS011;51146;50.274;19.000;2022-08-04T07:35:46;12.02;;;9.48;;
64716;SDS011;51146;50.274;19.000;2022-08-04T07:38:36;10.32;;;7.55;;
64716;SDS011;51146;50.274;19.000;2022-08-04T07:41:20;8.88;;;7.60;;
64716;SDS011;51146;50.274;19.000;2022-08-04T07:44:06;8.48;;;6.68;;
64716;SDS011;51146;50.274;19.000;2022-08-04T07:46:35;11.13;;;7.13;;
64716;SDS011;51146;50.274;19.000;2022-08-04T07:49:02;9.00;;;7.03;;
64716;SDS011;51146;50.274;19.000;2022-08-04T07:51:31;9.77;;;7.55;;
64716;SDS011;51146;50.274;19.000;2022-08-04T07:54:00;8.95;;;6.68;;
64716;SDS011;51146;50.274;19.000;2022-08-04T07:56:29;8.32;;;7.00;;
64716;SDS011;51146;50.274;19.000;2022-08-04T07:58:58;9.52;;;7.20;;
64716;SDS011;51146;50.274;19.000;2022-08-04T08:01:25;8.20;;;6.07;;
64716;SDS011;51146;50.274;19.000;2022-08-04T08:03:54;7.57;;;6.30;;
64716;SDS011;51146;50.274;19.000;2022-08-04T08:06:23;7.53;;;6.43;;
64716;SDS011;51146;50.274;19.000;2022-08-04T08:09:00;10.00;;;6.28;;
64716;SDS011;51146;50.274;19.000;2022-08-04T08:11:43;11.10;;;6.50;;
64716;SDS011;51146;50.274;19.000;2022-08-04T08:14:32;12.63;;;6.70;;
64716;SDS011;51146;50.274;19.000;2022-08-04T08:17:01;9.40;;;5.73;;
64716;SDS011;51146;50.274;19.000;2022-08-04T08:19:30;8.67;;;6.43;;
64716;SDS011;51146;50.274;19.000;2022-08-04T08:21:57;7.82;;;5.78;;
64716;SDS011;51146;50.274;19.000;2022-08-04T08:24:27;7.50;;;6.00;;
64716;SDS011;51146;50.274;19.000;2022-08-04T08:26:55;7.05;;;6.35;;
64716;SDS011;51146;50.274;19.000;2022-08-04T08:29:23;7.68;;;5.35;;
64716;SDS011;51146;50.274;19.000;2022-08-04T08:31:52;7.70;;;5.50;;
64716;SDS011;51146;50.274;19.000;2022-08-04T08:34:24;9.40;;;5.88;;
64716;SDS011;51146;50.274;19.000;2022-08-04T08:37:04;6.40;;;5.75;;
64716;SDS011;51146;50.274;19.000;2022-08-04T08:55:31;6.80;;;6.10;;
64716;SDS011;51146;50.274;19.000;2022-08-04T09:00:55;7.95;;;6.30;;
64716;SDS011;51146;50.274;19.000;2022-08-04T09:03:37;6.40;;;5.80;;
64716;SDS011;51146;50.274;19.000;2022-08-04T09:09:12;5.72;;;5.22;;
64716;SDS011;51146;50.274;19.000;2022-08-04T09:12:17;6.50;;;4.50;;
64716;SDS011;51146;50.274;19.000;2022-08-04T09:14:54;5.28;;;4.55;;
64716;SDS011;51146;50.274;19.000;2022-08-04T09:20:39;7.93;;;4.75;;
64716;SDS011;51146;50.274;19.000;2022-08-04T09:23:15;4.70;;;3.88;;
64716;SDS011;51146;50.274;19.000;2022-08-04T09:28:42;6.50;;;5.30;;
64716;SDS011;51146;50.274;19.000;2022-08-04T09:31:21;5.20;;;4.60;;
64716;SDS011;51146;50.274;19.000;2022-08-04T09:34:22;6.97;;;4.13;;
64716;SDS011;51146;50.274;19.000;2022-08-04T09:39:39;5.03;;;3.80;;
64716;SDS011;51146;50.274;19.000;2022-08-04T09:44:59;4.38;;;3.75;;
64716;SDS011;51146;50.274;19.000;2022-08-04T09:47:43;6.30;;;4.57;;
64716;SDS011;51146;50.274;19.000;2022-08-04T09:50:39;5.05;;;3.70;;
64716;SDS011;51146;50.274;19.000;2022-08-04T10:01:55;5.07;;;3.55;;
64716;SDS011;51146;50.274;19.000;2022-08-04T10:04:27;8.85;;;3.83;;
64716;SDS011;51146;50.274;19.000;2022-08-04T10:18:03;4.10;;;3.67;;
64716;SDS011;51146;50.274;19.000;2022-08-04T10:21:17;5.45;;;3.42;;
64716;SDS011;51146;50.274;19.000;2022-08-04T10:30:08;6.43;;;4.30;;
64716;SDS011;51146;50.274;19.000;2022-08-04T10:35:15;4.93;;;4.40;;
64716;SDS011;51146;50.274;19.000;2022-08-04T10:40:39;4.45;;;4.05;;
64716;SDS011;51146;50.274;19.000;2022-08-04T10:43:18;4.50;;;4.10;;
64716;SDS011;51146;50.274;19.000;2022-08-04T10:49:03;6.57;;;4.90;;
64716;SDS011;51146;50.274;19.000;2022-08-04T10:51:41;4.55;;;4.15;;
64716;SDS011;51146;50.274;19.000;2022-08-04T11:00:07;6.93;;;4.72;;
64716;SDS011;51146;50.274;19.000;2022-08-04T11:08:00;5.75;;;4.22;;
64716;SDS011;51146;50.274;19.000;2022-08-04T11:10:39;5.35;;;4.18;;
64716;SDS011;51146;50.274;19.000;2022-08-04T11:13:13;4.85;;;3.97;;
64716;SDS011;51146;50.274;19.000;2022-08-04T11:15:55;4.20;;;3.88;;
64716;SDS011;51146;50.274;19.000;2022-08-04T11:18:33;8.45;;;4.47;;
64716;SDS011;51146;50.274;19.000;2022-08-04T11:21:13;6.75;;;3.95;;
64716;SDS011;51146;50.274;19.000;2022-08-04T11:23:55;5.28;;;4.00;;
64716;SDS011;51146;50.274;19.000;2022-08-04T11:26:32;6.43;;;4.10;;
64716;SDS011;51146;50.274;19.000;2022-08-04T11:31:52;5.45;;;4.13;;
64716;SDS011;51146;50.274;19.000;2022-08-04T11:34:25;6.22;;;4.30;;
64716;SDS011;51146;50.274;19.000;2022-08-04T11:37:10;4.25;;;3.90;;
64716;SDS011;51146;50.274;19.000;2022-08-04T11:39:41;4.65;;;4.22;;
64716;SDS011;51146;50.274;19.000;2022-08-04T11:42:29;6.35;;;4.25;;
64716;SDS011;51146;50.274;19.000;2022-08-04T11:45:02;5.47;;;4.28;;
64716;SDS011;51146;50.274;19.000;2022-08-04T11:50:41;4.22;;;3.83;;
64716;SDS011;51146;50.274;19.000;2022-08-04T11:53:15;12.38;;;4.65;;
64716;SDS011;51146;50.274;19.000;2022-08-04T11:55:51;5.25;;;4.72;;
64716;SDS011;51146;50.274;19.000;2022-08-04T11:58:34;4.63;;;4.20;;
64716;SDS011;51146;50.274;19.000;2022-08-04T12:06:55;5.18;;;4.05;;
64716;SDS011;51146;50.274;19.000;2022-08-04T12:09:55;7.00;;;4.00;;
64716;SDS011;51146;50.274;19.000;2022-08-04T12:12:44;8.00;;;4.15;;
64716;SDS011;51146;50.274;19.000;2022-08-04T12:15:21;5.00;;;4.50;;
64716;SDS011;51146;50.274;19.000;2022-08-04T12:17:56;4.97;;;4.05;;
64716;SDS011;51146;50.274;19.000;2022-08-04T12:20:45;4.40;;;4.10;;
64716;SDS011;51146;50.274;19.000;2022-08-04T12:23:25;6.28;;;4.60;;
64716;SDS011;51146;50.274;19.000;2022-08-04T12:25:58;5.28;;;4.35;;
64716;SDS011;51146;50.274;19.000;2022-08-04T12:28:30;5.28;;;3.75;;
64716;SDS011;51146;50.274;19.000;2022-08-04T12:31:28;5.35;;;3.90;;
64716;SDS011;51146;50.274;19.000;2022-08-04T12:39:29;8.55;;;4.10;;
64716;SDS011;51146;50.274;19.000;2022-08-04T12:44:30;4.47;;;4.03;;
64716;SDS011;51146;50.274;19.000;2022-08-04T12:47:07;5.18;;;4.03;;
64716;SDS011;51146;50.274;19.000;2022-08-04T12:49:58;4.38;;;3.97;;
64716;SDS011;51146;50.274;19.000;2022-08-04T12:52:32;5.82;;;4.28;;
64716;SDS011;51146;50.274;19.000;2022-08-04T12:55:28;7.68;;;4.13;;
64716;SDS011;51146;50.274;19.000;2022-08-04T12:57:56;7.28;;;4.00;;
64716;SDS011;51146;50.274;19.000;2022-08-04T13:00:33;5.90;;;4.10;;
64716;SDS011;51146;50.274;19.000;2022-08-04T13:03:08;4.18;;;3.75;;
64716;SDS011;51146;50.274;19.000;2022-08-04T13:05:38;5.35;;;3.78;;
64716;SDS011;51146;50.274;19.000;2022-08-04T13:08:06;6.38;;;3.90;;
64716;SDS011;51146;50.274;19.000;2022-08-04T13:10:44;4.60;;;4.20;;
64716;SDS011;51146;50.274;19.000;2022-08-04T13:13:17;4.32;;;3.72;;
64716;SDS011;51146;50.274;19.000;2022-08-04T13:15:59;9.68;;;4.65;;
64716;SDS011;51146;50.274;19.000;2022-08-04T13:18:29;5.05;;;4.15;;
64716;SDS011;51146;50.274;19.000;2022-08-04T13:24:15;4.68;;;3.35;;
64716;SDS011;51146;50.274;19.000;2022-08-04T13:26:49;4.07;;;3.42;;
64716;SDS011;51146;50.274;19.000;2022-08-04T13:29:23;4.32;;;3.90;;
64716;SDS011;51146;50.274;19.000;2022-08-04T13:32:26;5.53;;;4.20;;
64716;SDS011;51146;50.274;19.000;2022-08-04T13:34:55;5.10;;;4.22;;
64716;SDS011;51146;50.274;19.000;2022-08-04T13:37:29;6.05;;;4.20;;
64716;SDS011;51146;50.274;19.000;2022-08-04T13:40:05;4.82;;;3.70;;
64716;SDS011;51146;50.274;19.000;2022-08-04T13:42:37;4.70;;;4.20;;
64716;SDS011;51146;50.274;19.000;2022-08-04T13:45:06;7.20;;;4.00;;
64716;SDS011;51146;50.274;19.000;2022-08-04T13:47:35;6.55;;;4.72;;
64716;SDS011;51146;50.274;19.000;2022-08-04T13:50:11;4.25;;;3.88;;
64716;SDS011;51146;50.274;19.000;2022-08-04T13:52:42;4.25;;;3.90;;
64716;SDS011;51146;50.274;19.000;2022-08-04T14:00:51;5.40;;;4.00;;
64716;SDS011;51146;50.274;19.000;2022-08-04T14:03:25;7.70;;;3.80;;
64716;SDS011;51146;50.274;19.000;2022-08-04T14:07:02;4.90;;;4.40;;
64716;SDS011;51146;50.274;19.000;2022-08-04T14:09:18;5.32;;;4.25;;
64716;SDS011;51146;50.274;19.000;2022-08-04T14:12:10;5.45;;;4.35;;
64716;SDS011;51146;50.274;19.000;2022-08-04T14:14:58;5.15;;;4.28;;
64716;SDS011;51146;50.274;19.000;2022-08-04T14:17:25;6.35;;;4.22;;
64716;SDS011;51146;50.274;19.000;2022-08-04T14:19:56;5.95;;;4.78;;
64716;SDS011;51146;50.274;19.000;2022-08-04T14:25:06;5.68;;;4.75;;
64716;SDS011;51146;50.274;19.000;2022-08-04T14:30:19;5.78;;;4.50;;
64716;SDS011;51146;50.274;19.000;2022-08-04T14:32:58;6.32;;;3.92;;
64716;SDS011;51146;50.274;19.000;2022-08-04T14:35:56;4.65;;;4.22;;
64716;SDS011;51146;50.274;19.000;2022-08-04T14:38:24;6.30;;;4.40;;
64716;SDS011;51146;50.274;19.000;2022-08-04T14:41:11;6.53;;;4.13;;
64716;SDS011;51146;50.274;19.000;2022-08-04T14:43:49;4.38;;;4.07;;
64716;SDS011;51146;50.274;19.000;2022-08-04T14:46:20;5.43;;;4.28;;
64716;SDS011;51146;50.274;19.000;2022-08-04T14:49:08;7.90;;;4.13;;
64716;SDS011;51146;50.274;19.000;2022-08-04T14:51:39;4.75;;;4.35;;
64716;SDS011;51146;50.274;19.000;2022-08-04T14:54:09;7.10;;;4.68;;
64716;SDS011;51146;50.274;19.000;2022-08-04T14:56:50;6.47;;;4.50;;
64716;SDS011;51146;50.274;19.000;2022-08-04T14:59:20;5.35;;;4.85;;
64716;SDS011;51146;50.274;19.000;2022-08-04T15:01:47;5.18;;;4.63;;
64716;SDS011;51146;50.274;19.000;2022-08-04T15:04:27;8.50;;;4.68;;
64716;SDS011;51146;50.274;19.000;2022-08-04T15:06:58;6.43;;;4.43;;
64716;SDS011;51146;50.274;19.000;2022-08-04T15:09:30;5.20;;;4.72;;
64716;SDS011;51146;50.274;19.000;2022-08-04T15:11:58;5.57;;;4.38;;
64716;SDS011;51146;50.274;19.000;2022-08-04T15:14:25;5.00;;;4.47;;
64716;SDS011;51146;50.274;19.000;2022-08-04T15:17:03;7.57;;;4.93;;
64716;SDS011;51146;50.274;19.000;2022-08-04T15:19:52;6.10;;;5.07;;
64716;SDS011;51146;50.274;19.000;2022-08-04T15:22:21;5.85;;;4.80;;
64716;SDS011;51146;50.274;19.000;2022-08-04T15:24:48;5.70;;;4.75;;
64716;SDS011;51146;50.274;19.000;2022-08-04T15:27:20;5.90;;;4.65;;
64716;SDS011;51146;50.274;19.000;2022-08-04T15:29:50;6.50;;;5.90;;
64716;SDS011;51146;50.274;19.000;2022-08-04T15:32:27;5.38;;;4.53;;
64716;SDS011;51146;50.274;19.000;2022-08-04T15:35:03;7.30;;;5.15;;
64716;SDS011;51146;50.274;19.000;2022-08-04T15:46:25;7.25;;;5.22;;
64716;SDS011;51146;50.274;19.000;2022-08-04T15:49:22;9.57;;;5.57;;
64716;SDS011;51146;50.274;19.000;2022-08-04T15:52:00;7.38;;;5.20;;
64716;SDS011;51146;50.274;19.000;2022-08-04T15:54:38;5.63;;;5.10;;
64716;SDS011;51146;50.274;19.000;2022-08-04T15:57:08;6.68;;;5.32;;
64716;SDS011;51146;50.274;19.000;2022-08-04T15:59:54;6.70;;;5.22;;
64716;SDS011;51146;50.274;19.000;2022-08-04T16:07:56;5.88;;;5.22;;
64716;SDS011;51146;50.274;19.000;2022-08-04T16:12:56;10.50;;;5.53;;
64716;SDS011;51146;50.274;19.000;2022-08-04T16:15:52;11.38;;;5.22;;
64716;SDS011;51146;50.274;19.000;2022-08-04T16:20:55;6.90;;;5.78;;
64716;SDS011;51146;50.274;19.000;2022-08-04T16:29:27;6.60;;;6.00;;
64716;SDS011;51146;50.274;19.000;2022-08-04T16:34:32;6.00;;;4.78;;
64716;SDS011;51146;50.274;19.000;2022-08-04T16:37:29;6.07;;;4.50;;
64716;SDS011;51146;50.274;19.000;2022-08-04T16:43:00;7.20;;;5.03;;
64716;SDS011;51146;50.274;19.000;2022-08-04T16:45:42;6.53;;;4.78;;
64716;SDS011;51146;50.274;19.000;2022-08-04T16:48:12;7.82;;;5.35;;
64716;SDS011;51146;50.274;19.000;2022-08-04T16:50:44;5.45;;;4.70;;
64716;SDS011;51146;50.274;19.000;2022-08-04T16:53:18;10.68;;;5.65;;
64716;SDS011;51146;50.274;19.000;2022-08-04T16:58:35;6.97;;;5.05;;
64716;SDS011;51146;50.274;19.000;2022-08-04T17:01:15;6.40;;;5.07;;
64716;SDS011;51146;50.274;19.000;2022-08-04T17:03:58;5.80;;;5.20;;
64716;SDS011;51146;50.274;19.000;2022-08-04T17:06:38;9.73;;;5.03;;
64716;SDS011;51146;50.274;19.000;2022-08-04T17:09:10;8.35;;;5.20;;
64716;SDS011;51146;50.274;19.000;2022-08-04T17:11:39;7.63;;;4.90;;
64716;SDS011;51146;50.274;19.000;2022-08-04T17:14:08;6.03;;;5.25;;
64716;SDS011;51146;50.274;19.000;2022-08-04T17:16:36;5.55;;;5.05;;
64716;SDS011;51146;50.274;19.000;2022-08-04T17:19:05;6.68;;;5.03;;
64716;SDS011;51146;50.274;19.000;2022-08-04T17:21:46;6.53;;;4.78;;
64716;SDS011;51146;50.274;19.000;2022-08-04T17:24:12;7.40;;;4.93;;
64716;SDS011;51146;50.274;19.000;2022-08-04T17:26:44;5.90;;;5.30;;
64716;SDS011;51146;50.274;19.000;2022-08-04T17:29:19;6.45;;;5.03;;
64716;SDS011;51146;50.274;19.000;2022-08-04T17:31:46;7.82;;;4.60;;
64716;SDS011;51146;50.274;19.000;2022-08-04T17:34:14;5.93;;;5.15;;
64716;SDS011;51146;50.274;19.000;2022-08-04T17:36:44;5.70;;;5.10;;
64716;SDS011;51146;50.274;19.000;2022-08-04T17:39:14;6.13;;;4.97;;
64716;SDS011;51146;50.274;19.000;2022-08-04T17:41:46;6.20;;;5.53;;
64716;SDS011;51146;50.274;19.000;2022-08-04T17:44:14;6.65;;;4.80;;
64716;SDS011;51146;50.274;19.000;2022-08-04T17:46:45;6.80;;;4.85;;
64716;SDS011;51146;50.274;19.000;2022-08-04T17:51:53;12.18;;;5.57;;
64716;SDS011;51146;50.274;19.000;2022-08-04T17:54:36;6.40;;;5.18;;
64716;SDS011;51146;50.274;19.000;2022-08-04T17:57:14;9.23;;;4.72;;
64716;SDS011;51146;50.274;19.000;2022-08-04T18:05:25;5.35;;;4.75;;
64716;SDS011;51146;50.274;19.000;2022-08-04T18:08:12;6.03;;;5.18;;
64716;SDS011;51146;50.274;19.000;2022-08-04T18:11:00;9.02;;;5.20;;
64716;SDS011;51146;50.274;19.000;2022-08-04T18:13:28;9.35;;;4.90;;
64716;SDS011;51146;50.274;19.000;2022-08-04T18:16:15;10.00;;;4.97;;
64716;SDS011;51146;50.274;19.000;2022-08-04T18:19:08;9.43;;;5.15;;
64716;SDS011;51146;50.274;19.000;2022-08-04T18:21:36;8.20;;;5.40;;
64716;SDS011;51146;50.274;19.000;2022-08-04T18:24:23;7.70;;;4.80;;
64716;SDS011;51146;50.274;19.000;2022-08-04T18:27:01;7.97;;;5.40;;
64716;SDS011;51146;50.274;19.000;2022-08-04T18:29:32;8.02;;;5.30;;
64716;SDS011;51146;50.274;19.000;2022-08-04T18:32:04;9.80;;;5.00;;
64716;SDS011;51146;50.274;19.000;2022-08-04T18:34:34;8.07;;;5.13;;
64716;SDS011;51146;50.274;19.000;2022-08-04T18:37:20;10.45;;;5.90;;
64716;SDS011;51146;50.274;19.000;2022-08-04T18:40:07;8.95;;;5.50;;
64716;SDS011;51146;50.274;19.000;2022-08-04T18:42:56;8.45;;;4.80;;
64716;SDS011;51146;50.274;19.000;2022-08-04T18:45:25;8.13;;;5.18;;
64716;SDS011;51146;50.274;19.000;2022-08-04T18:48:00;7.80;;;4.93;;
64716;SDS011;51146;50.274;19.000;2022-08-04T18:50:39;13.32;;;4.90;;
64716;SDS011;51146;50.274;19.000;2022-08-04T18:53:26;5.15;;;4.65;;
64716;SDS011;51146;50.274;19.000;2022-08-04T18:56:01;8.88;;;5.50;;
64716;SDS011;51146;50.274;19.000;2022-08-04T18:58:44;6.55;;;5.18;;
64716;SDS011;51146;50.274;19.000;2022-08-04T19:01:13;8.38;;;4.97;;
64716;SDS011;51146;50.274;19.000;2022-08-04T19:03:40;7.40;;;4.93;;
64716;SDS011;51146;50.274;19.000;2022-08-04T19:06:10;10.65;;;5.20;;
64716;SDS011;51146;50.274;19.000;2022-08-04T19:08:38;9.18;;;6.13;;
64716;SDS011;51146;50.274;19.000;2022-08-04T19:11:10;13.05;;;5.85;;
64716;SDS011;51146;50.274;19.000;2022-08-04T19:16:30;12.23;;;8.02;;
64716;SDS011;51146;50.274;19.000;2022-08-04T19:18:59;6.97;;;5.40;;
64716;SDS011;51146;50.274;19.000;2022-08-04T19:21:31;7.72;;;5.53;;
64716;SDS011;51146;50.274;19.000;2022-08-04T19:24:18;6.22;;;5.25;;
64716;SDS011;51146;50.274;19.000;2022-08-04T19:27:01;9.25;;;6.00;;
64716;SDS011;51146;50.274;19.000;2022-08-04T19:29:33;6.93;;;6.22;;
64716;SDS011;51146;50.274;19.000;2022-08-04T19:32:06;8.10;;;5.32;;
64716;SDS011;51146;50.274;19.000;2022-08-04T19:34:41;8.80;;;5.85;;
64716;SDS011;51146;50.274;19.000;2022-08-04T19:37:15;7.43;;;5.78;;
64716;SDS011;51146;50.274;19.000;2022-08-04T19:40:04;7.85;;;5.30;;
64716;SDS011;51146;50.274;19.000;2022-08-04T19:42:35;11.98;;;6.32;;
64716;SDS011;51146;50.274;19.000;2022-08-04T19:45:02;8.38;;;6.82;;
64716;SDS011;51146;50.274;19.000;2022-08-04T19:47:31;12.45;;;5.97;;
64716;SDS011;51146;50.274;19.000;2022-08-04T19:50:18;7.90;;;6.13;;
64716;SDS011;51146;50.274;19.000;2022-08-04T19:52:49;9.98;;;5.97;;
64716;SDS011;51146;50.274;19.000;2022-08-04T19:55:18;8.97;;;5.83;;
64716;SDS011;51146;50.274;19.000;2022-08-04T19:57:48;7.75;;;6.05;;
64716;SDS011;51146;50.274;19.000;2022-08-04T20:00:15;6.47;;;5.85;;
64716;SDS011;51146;50.274;19.000;2022-08-04T20:02:59;10.77;;;6.63;;
64716;SDS011;51146;50.274;19.000;2022-08-04T20:05:39;12.85;;;6.40;;
64716;SDS011;51146;50.274;19.000;2022-08-04T20:08:21;9.10;;;5.78;;
64716;SDS011;51146;50.274;19.000;2022-08-04T20:10:50;9.18;;;5.70;;
64716;SDS011;51146;50.274;19.000;2022-08-04T20:13:20;7.70;;;5.93;;
64716;SDS011;51146;50.274;19.000;2022-08-04T20:16:03;7.68;;;6.18;;
64716;SDS011;51146;50.274;19.000;2022-08-04T20:18:51;8.18;;;6.07;;